createdAt,value
2018-08-17T00:02:25.915Z,10.20
2018-08-17T00:06:28.146Z,9.30
2018-08-17T00:10:30.325Z,7.87
2018-08-17T00:14:32.499Z,7.50
2018-08-17T00:18:34.678Z,8.77
2018-08-17T00:22:36.902Z,9.00
2018-08-17T00:26:39.130Z,7.50
2018-08-17T00:30:41.296Z,13.07
2018-08-17T00:34:43.471Z,7.70
2018-08-17T00:38:45.639Z,8.33
2018-08-17T00:42:47.822Z,7.33
2018-08-17T00:46:50.019Z,8.47
2018-08-17T00:50:52.218Z,9.73
2018-08-17T00:54:54.376Z,8.23
2018-08-17T00:58:56.554Z,9.63
2018-08-17T01:02:58.827Z,8.23
2018-08-17T01:07:01.441Z,8.33
2018-08-17T01:11:03.642Z,7.77
2018-08-17T01:15:06.007Z,7.83
2018-08-17T01:19:08.204Z,7.77
2018-08-17T01:23:10.440Z,7.77
2018-08-17T01:27:12.657Z,9.53
2018-08-17T01:31:14.895Z,9.63
2018-08-17T01:35:17.391Z,11.67
2018-08-17T01:39:19.553Z,11.30
2018-08-17T01:43:21.719Z,13.23
2018-08-17T01:47:23.874Z,12.13
2018-08-17T01:51:26.519Z,11.13
2018-08-17T01:55:28.748Z,10.33
2018-08-17T01:59:30.937Z,11.17
2018-08-17T02:03:33.730Z,10.67
2018-08-17T02:07:36.486Z,11.47
2018-08-17T02:11:39.126Z,10.07
2018-08-17T02:15:41.287Z,9.80
2018-08-17T02:19:43.447Z,9.27
2018-08-17T02:23:45.604Z,10.13
2018-08-17T02:27:47.777Z,11.23
2018-08-17T02:31:49.937Z,11.23
2018-08-17T02:35:52.104Z,8.37
2018-08-17T02:39:54.846Z,10.10
2018-08-17T02:43:57.097Z,10.17
2018-08-17T02:48:00.105Z,8.77
2018-08-17T02:52:02.307Z,8.97
2018-08-17T02:56:04.504Z,7.27
2018-08-17T03:00:06.763Z,9.30
2018-08-17T03:04:09.008Z,9.23
2018-08-17T03:08:11.199Z,8.37
2018-08-17T03:12:13.394Z,9.77
2018-08-17T03:16:15.708Z,9.83
2018-08-17T03:20:17.880Z,8.60
2018-08-17T03:24:20.638Z,8.97
2018-08-17T03:28:23.009Z,8.23
2018-08-17T03:32:25.475Z,8.27
2018-08-17T03:36:27.701Z,8.87
2018-08-17T03:40:29.877Z,9.70
2018-08-17T03:44:32.067Z,9.10
2018-08-17T03:48:34.835Z,9.40
2018-08-17T03:52:37.138Z,8.17
2018-08-17T03:56:39.298Z,9.40
2018-08-17T04:00:41.591Z,8.93
2018-08-17T04:04:43.809Z,8.40
2018-08-17T04:08:46.115Z,10.07
2018-08-17T04:12:48.439Z,8.13
2018-08-17T04:16:50.919Z,7.77
2018-08-17T04:20:53.176Z,8.30
2018-08-17T04:24:55.375Z,8.27
2018-08-17T04:28:58.148Z,9.57
2018-08-17T04:33:00.475Z,9.83
2018-08-17T04:37:03.247Z,9.20
2018-08-17T04:41:05.786Z,8.60
2018-08-17T04:45:08.831Z,9.50
2018-08-17T04:49:11.090Z,9.60
2018-08-17T04:53:13.333Z,10.43
2018-08-17T04:57:15.503Z,10.27
2018-08-17T05:01:17.672Z,10.10
2018-08-17T05:05:19.882Z,9.50
2018-08-17T05:09:22.331Z,23.70
2018-08-17T05:13:24.534Z,18.30
2018-08-17T05:17:26.684Z,9.43
2018-08-17T05:21:29.325Z,9.63
2018-08-17T05:25:32.310Z,9.40
2018-08-17T05:29:34.476Z,8.87
2018-08-17T05:33:36.656Z,9.20
2018-08-17T05:37:38.902Z,8.77
2018-08-17T05:41:41.111Z,9.37
2018-08-17T05:45:43.366Z,9.83
2018-08-17T05:49:46.576Z,10.60
2018-08-17T05:53:49.296Z,9.47
2018-08-17T05:57:51.929Z,10.67
2018-08-17T06:01:54.226Z,11.30
2018-08-17T06:05:56.436Z,8.77
2018-08-17T06:09:58.688Z,7.87
2018-08-17T06:14:00.872Z,8.53
2018-08-17T06:18:03.111Z,9.27
2018-08-17T06:22:05.410Z,11.93
2018-08-17T06:26:07.644Z,9.70
2018-08-17T06:30:13.829Z,10.83
2018-08-17T06:34:16.909Z,10.53
2018-08-17T06:38:19.177Z,11.10
2018-08-17T06:42:21.336Z,12.63
2018-08-17T06:46:23.504Z,16.10
2018-08-17T06:50:25.681Z,11.40
2018-08-17T06:54:27.854Z,11.60
2018-08-17T06:58:30.015Z,11.93
2018-08-17T07:02:32.207Z,12.27
2018-08-17T07:06:34.374Z,13.13
2018-08-17T07:10:37.827Z,12.10
2018-08-17T07:14:39.979Z,13.50
2018-08-17T07:18:42.121Z,12.60
2018-08-17T07:22:45.003Z,13.20
2018-08-17T07:26:47.858Z,12.23
2018-08-17T07:30:50.634Z,13.97
2018-08-17T07:34:52.818Z,12.50
2018-08-17T07:38:55.034Z,14.03
2018-08-17T07:42:57.271Z,13.13
2018-08-17T07:46:59.499Z,15.37
2018-08-17T07:51:01.680Z,12.00
2018-08-17T07:55:03.902Z,12.10
2018-08-17T07:59:06.238Z,13.67
2018-08-17T08:03:08.420Z,12.13
2018-08-17T08:07:10.626Z,18.47
2018-08-17T08:11:12.909Z,12.97
2018-08-17T08:15:15.051Z,12.73
2018-08-17T08:19:19.244Z,12.23
2018-08-17T08:23:26.670Z,12.60
2018-08-17T08:27:30.492Z,12.97
2018-08-17T08:31:32.711Z,13.00
2018-08-17T08:35:34.903Z,12.77
2018-08-17T08:39:37.175Z,11.70
2018-08-17T08:43:39.341Z,13.43
2018-08-17T08:47:41.527Z,12.93
2018-08-17T08:51:43.792Z,12.93
2018-08-17T08:55:45.959Z,12.87
2018-08-17T08:59:48.187Z,10.87
2018-08-17T09:03:50.444Z,12.33
2018-08-17T09:07:52.835Z,13.57
2018-08-17T09:11:55.041Z,14.83
2018-08-17T09:15:57.283Z,12.03
2018-08-17T09:19:59.503Z,15.00
2018-08-17T09:24:01.683Z,12.97
2018-08-17T09:28:03.958Z,11.80
2018-08-17T09:32:06.231Z,12.47
2018-08-17T09:36:08.573Z,12.13
2018-08-17T09:40:11.157Z,13.63
2018-08-17T09:44:14.077Z,13.20
2018-08-17T09:48:16.454Z,12.60
2018-08-17T09:52:18.659Z,13.53
2018-08-17T09:56:20.807Z,14.53
2018-08-17T10:00:28.680Z,15.57
2018-08-17T10:04:36.484Z,13.13
2018-08-17T10:08:45.055Z,12.00
2018-08-17T10:12:49.754Z,12.63
2018-08-17T10:16:51.908Z,13.53
2018-08-17T10:20:54.157Z,11.97
2018-08-17T10:25:01.076Z,12.97
2018-08-17T10:29:04.117Z,13.27
2018-08-17T10:33:06.924Z,11.13
2018-08-17T10:37:09.946Z,14.70
2018-08-17T10:41:12.160Z,12.27
2018-08-17T10:45:14.306Z,13.40
2018-08-17T10:49:16.558Z,13.37
2018-08-17T10:53:19.207Z,11.40
2018-08-17T10:57:21.392Z,14.37
2018-08-17T11:01:23.889Z,13.03
2018-08-17T11:05:26.207Z,12.57
2018-08-17T11:09:29.337Z,13.73
2018-08-17T11:13:31.762Z,12.37
2018-08-17T11:17:33.917Z,14.97
2018-08-17T11:21:36.094Z,13.40
2018-08-17T11:25:38.338Z,13.53
2018-08-17T11:29:40.584Z,13.33
2018-08-17T11:33:42.788Z,11.13
2018-08-17T11:37:45.063Z,10.53
2018-08-17T11:41:47.262Z,12.50
2018-08-17T11:45:49.579Z,13.70
2018-08-17T11:49:51.858Z,12.40
2018-08-17T11:53:54.117Z,11.90
2018-08-17T11:57:56.252Z,11.93
2018-08-17T12:01:58.485Z,10.43
2018-08-17T12:06:00.639Z,9.87
2018-08-17T12:10:03.829Z,9.73
2018-08-17T12:14:06.399Z,8.70
2018-08-17T12:18:10.004Z,10.57
2018-08-17T12:22:13.576Z,7.73
2018-08-17T12:26:16.621Z,7.73
2018-08-17T12:30:19.293Z,8.47
2018-08-17T12:34:21.632Z,6.70
2018-08-17T12:38:24.180Z,7.37
2018-08-17T12:42:26.520Z,7.43
2018-08-17T12:46:29.370Z,6.97
2018-08-17T12:50:31.882Z,7.30
2018-08-17T12:54:34.867Z,8.47
2018-08-17T12:58:37.059Z,8.27
2018-08-17T13:02:39.872Z,6.40
2018-08-17T13:06:42.223Z,7.17
2018-08-17T13:10:45.657Z,5.90
2018-08-17T13:14:48.480Z,6.93
2018-08-17T13:18:50.675Z,7.60
2018-08-17T13:22:53.305Z,7.33
2018-08-17T13:26:55.508Z,4.97
2018-08-17T13:30:58.219Z,7.07
2018-08-17T13:35:01.298Z,7.13
2018-08-17T13:39:06.770Z,6.43
2018-08-17T13:43:09.021Z,7.60
2018-08-17T13:47:11.347Z,7.50
2018-08-17T13:51:13.628Z,9.80
2018-08-17T13:55:15.875Z,7.57
2018-08-17T13:59:17.991Z,7.43
2018-08-17T14:03:20.166Z,7.23
2018-08-17T14:07:22.401Z,12.33
2018-08-17T14:11:24.649Z,6.83
2018-08-17T14:15:26.855Z,7.83
2018-08-17T14:19:29.092Z,22.07
2018-08-17T14:23:31.268Z,7.27
2018-08-17T14:27:33.511Z,7.43
2018-08-17T14:31:35.687Z,6.43
2018-08-17T14:35:39.010Z,6.77
2018-08-17T14:39:41.812Z,8.37
2018-08-17T14:43:44.102Z,7.53
2018-08-17T14:47:46.309Z,6.63
2018-08-17T14:51:49.867Z,7.10
2018-08-17T14:55:52.268Z,7.30
2018-08-17T14:59:54.473Z,7.90
2018-08-17T15:03:56.925Z,8.03
2018-08-17T15:08:02.180Z,8.03
2018-08-17T15:12:04.428Z,7.47
2018-08-17T15:16:06.614Z,8.47
2018-08-17T15:20:09.884Z,7.30
2018-08-17T15:24:12.092Z,7.13
2018-08-17T15:28:14.703Z,5.90
2018-08-17T15:32:17.204Z,6.10
2018-08-17T15:36:19.407Z,6.10
2018-08-17T15:40:21.575Z,6.07
2018-08-17T15:44:25.671Z,6.37
2018-08-17T15:48:28.943Z,4.93
2018-08-17T15:52:31.338Z,6.40
2018-08-17T15:56:33.523Z,8.27
2018-08-17T16:00:35.820Z,6.60
2018-08-17T16:04:37.993Z,6.40
2018-08-17T16:08:40.206Z,7.00
2018-08-17T16:12:42.622Z,7.20
2018-08-17T16:16:44.853Z,7.63
2018-08-17T16:20:47.155Z,8.67
2018-08-17T16:24:50.629Z,8.83
2018-08-17T16:28:52.902Z,8.37
2018-08-17T16:32:55.183Z,8.70
2018-08-17T16:36:57.447Z,10.07
2018-08-17T16:40:59.659Z,10.50
2018-08-17T16:45:02.105Z,9.33
2018-08-17T16:49:04.492Z,9.30
2018-08-17T16:53:06.759Z,11.10
2018-08-17T16:57:08.947Z,10.70
2018-08-17T17:01:11.215Z,11.63
2018-08-17T17:05:13.519Z,10.60
2018-08-17T17:09:15.682Z,10.03
2018-08-17T17:13:17.896Z,10.20
2018-08-17T17:17:20.084Z,10.77
2018-08-17T17:21:22.332Z,10.90
2018-08-17T17:25:24.502Z,19.77
2018-08-17T17:29:30.999Z,29.43
2018-08-17T17:33:33.184Z,19.10
2018-08-17T17:37:35.377Z,12.60
2018-08-17T17:41:37.766Z,12.60
2018-08-17T17:45:40.283Z,15.63
2018-08-17T17:49:42.507Z,13.23
2018-08-17T17:53:46.258Z,13.07
2018-08-17T17:57:49.859Z,11.50
2018-08-17T18:01:52.092Z,11.97
2018-08-17T18:05:54.739Z,11.03
2018-08-17T18:09:56.945Z,11.63
2018-08-17T18:13:59.130Z,10.53
2018-08-17T18:18:01.396Z,9.47
2018-08-17T18:22:03.707Z,10.00
2018-08-17T18:26:09.417Z,10.10
2018-08-17T18:30:11.691Z,10.00
2018-08-17T18:34:14.391Z,10.93
2018-08-17T18:38:16.606Z,10.93
2018-08-17T18:42:18.868Z,11.17
2018-08-17T18:46:21.202Z,14.33
2018-08-17T18:50:23.396Z,14.43
2018-08-17T18:54:25.710Z,15.80
2018-08-17T18:58:27.946Z,19.17
2018-08-17T19:02:30.162Z,19.03
2018-08-17T19:06:32.407Z,19.30
2018-08-17T19:10:34.710Z,18.40
2018-08-17T19:14:42.647Z,17.90
2018-08-17T19:18:44.852Z,21.07
2018-08-17T19:22:47.140Z,20.30
2018-08-17T19:26:49.351Z,19.77
2018-08-17T19:30:51.743Z,19.37
2018-08-17T19:34:54.283Z,20.17
2018-08-17T19:38:56.656Z,21.37
2018-08-17T19:42:58.845Z,24.40
2018-08-17T19:47:01.069Z,22.53
2018-08-17T19:51:07.917Z,22.23
2018-08-17T19:55:10.136Z,23.50
2018-08-17T19:59:12.287Z,24.30
2018-08-17T20:03:14.479Z,26.37
2018-08-17T20:07:16.736Z,23.77
2018-08-17T20:11:19.017Z,24.63
2018-08-17T20:15:21.271Z,24.63
2018-08-17T20:19:32.564Z,24.93
2018-08-17T20:23:34.792Z,24.00
2018-08-17T20:27:37.009Z,23.03
2018-08-17T20:31:42.504Z,24.03
2018-08-17T20:35:44.695Z,26.23
2018-08-17T20:39:47.168Z,25.10
2018-08-17T20:43:49.355Z,25.03
2018-08-17T20:47:51.650Z,23.77
2018-08-17T20:51:57.847Z,24.50
2018-08-17T20:56:00.179Z,24.77
2018-08-17T21:00:02.529Z,26.97
2018-08-17T21:04:04.773Z,26.77
2018-08-17T21:08:07.160Z,29.30
2018-08-17T21:12:09.342Z,27.90
2018-08-17T21:16:11.528Z,28.27
2018-08-17T21:20:14.084Z,29.53
2018-08-17T21:24:16.304Z,26.37
2018-08-17T21:28:18.488Z,28.33
2018-08-17T21:32:21.335Z,28.70
2018-08-17T21:36:23.555Z,25.87
2018-08-17T21:40:28.797Z,26.80
2018-08-17T21:44:31.019Z,23.43
2018-08-17T21:48:36.119Z,24.33
2018-08-17T21:52:38.324Z,23.13
2018-08-17T21:56:40.719Z,25.20
2018-08-17T22:00:42.956Z,26.00
2018-08-17T22:04:46.114Z,24.47
2018-08-17T22:08:48.322Z,23.57
2018-08-17T22:12:50.494Z,24.97
2018-08-17T22:16:52.674Z,25.53
2018-08-17T22:20:54.913Z,26.43
2018-08-17T22:24:58.135Z,24.80
2018-08-17T22:29:00.329Z,26.77
2018-08-17T22:33:12.199Z,25.20
2018-08-17T22:37:14.571Z,22.80
2018-08-17T22:41:16.754Z,25.97
2018-08-17T22:45:18.930Z,26.17
2018-08-17T22:49:21.106Z,24.20
2018-08-17T22:53:23.285Z,25.57
2018-08-17T22:57:26.263Z,24.80
2018-08-17T23:01:28.572Z,26.23
2018-08-17T23:05:34.335Z,28.07
2018-08-17T23:09:36.503Z,27.23
2018-08-17T23:13:38.662Z,26.40
2018-08-17T23:17:43.691Z,25.83
2018-08-17T23:21:45.911Z,25.80
2018-08-17T23:25:48.103Z,25.63
2018-08-17T23:29:50.262Z,27.90
2018-08-17T23:33:52.570Z,27.47
2018-08-17T23:37:54.818Z,28.47
2018-08-17T23:41:57.051Z,24.87
2018-08-17T23:45:59.219Z,25.43
2018-08-17T23:50:01.387Z,25.87
2018-08-17T23:54:03.568Z,26.90
2018-08-17T23:58:05.776Z,24.83
